Saltar al contingut principal

Dades de l'estació automàtica Pantà de Riba-roja

Selector estació i data
?
?

Resum diari

22:30 TU
Dades diàries de l'estació meteorològica
Temperatura mitjana 24.0 °C
Temperatura màxima 30.8 °C 14:50 TU
Temperatura mínima 19.3 °C 5:00 TU
Humitat relativa mitjana 55%
Precipitació acumulada 0.0 mm
Ratxa màxima del vent (2 m) 27.4 km/h - 244º 6:52 TU
Irradiació solar global 31.1 MJ/m2

El tram horari està expressat en Temps Universal (TU). Cal sumar una hora en horari d'hivern i dues en horari d'estiu per passar a l'hora oficial.

Pantà de Riba-roja

Metadades estació meteorològica
Municipi Riba-roja d'Ebre
Comarca Ribera d'Ebre
Altitud 69 m
Data alta 18.11.1996
Estat actual Operativa
Dades de període
Període
TU
TM
°C
TX
°C
TN
°C
HRM
%
PPT
mm
VVM (2 m)
km/h
DVM (2 m)
graus
VVX (2 m)
km/h
RS
W/m2
00:00 - 00:30 21.7 21.9 21.2 61 0.0 3.6 215 11.2 0
00:30 - 01:00 21.6 21.7 21.4 61 0.0 4.3 232 14.4 0
01:00 - 01:30 21.3 21.4 21.2 62 0.0 4.3 221 13.0 0
01:30 - 02:00 21.0 21.2 20.9 62 0.0 4.3 219 13.3 0
02:00 - 02:30 20.7 20.9 20.5 63 0.0 5.0 225 21.6 0
02:30 - 03:00 20.4 20.5 20.2 65 0.0 4.0 225 10.1 0
03:00 - 03:30 20.2 20.2 20.1 65 0.0 5.8 229 14.8 0
03:30 - 04:00 19.9 20.1 19.8 66 0.0 5.4 230 14.8 0
04:00 - 04:30 19.7 19.8 19.5 67 0.0 5.8 227 15.5 0
04:30 - 05:00 19.4 19.5 19.3 69 0.0 5.0 229 14.0 11
05:00 - 05:30 19.5 19.8 19.3 69 0.0 5.0 228 18.0 53
05:30 - 06:00 20.0 20.4 19.8 65 0.0 6.5 223 15.8 156
06:00 - 06:30 20.6 21.0 20.4 63 0.0 6.5 230 16.6 250
06:30 - 07:00 21.0 21.2 20.7 61 0.0 9.0 256 27.4 348
07:00 - 07:30 21.5 21.9 21.1 58 0.0 8.3 246 22.3 447
07:30 - 08:00 21.8 22.2 21.5 58 0.0 12.2 270 23.4 544
08:00 - 08:30 22.2 22.5 21.8 55 0.0 13.0 279 25.6 635
08:30 - 09:00 22.7 23.1 22.3 53 0.0 12.2 282 23.0 718
09:00 - 09:30 23.4 23.9 23.0 50 0.0 10.1 266 21.2 793
09:30 - 10:00 23.8 24.1 23.5 48 0.0 8.6 297 19.4 858
10:00 - 10:30 24.3 24.6 23.9 46 0.0 9.0 310 19.8 912
10:30 - 11:00 25.1 25.8 24.4 45 0.0 6.8 279 19.1 952
11:00 - 11:30 25.7 26.0 25.5 43 0.0 7.2 283 19.1 977
11:30 - 12:00 26.3 26.9 25.5 41 0.0 8.3 268 17.6 992
12:00 - 12:30 27.3 27.8 26.5 39 0.0 6.5 249 19.8 992
12:30 - 13:00 27.7 28.0 27.4 38 0.0 7.2 258 16.9 978
13:00 - 13:30 27.8 28.3 27.5 37 0.0 9.0 329 17.6 951
13:30 - 14:00 28.1 28.3 27.9 36 0.0 10.4 334 17.3 912
14:00 - 14:30 28.7 29.2 28.1 34 0.0 8.6 333 14.0 858
14:30 - 15:00 30.2 30.8 29.3 32 0.0 3.6 345 17.6 790
15:00 - 15:30 29.6 29.9 29.2 40 0.0 7.9 73 21.6 742
15:30 - 16:00 29.2 29.5 28.9 42 0.0 6.1 73 19.1 584
16:00 - 16:30 29.0 29.2 28.6 45 0.0 8.3 50 24.5 536
16:30 - 17:00 28.4 28.7 28.1 49 0.0 8.3 58 19.4 455
17:00 - 17:30 28.1 28.3 27.9 50 0.0 6.8 69 20.9 347
17:30 - 18:00 27.6 27.9 27.4 53 0.0 6.8 67 22.3 250
18:00 - 18:30 27.1 27.5 26.7 55 0.0 6.8 69 20.5 160
18:30 - 19:00 26.4 26.7 26.1 58 0.0 6.5 60 17.6 80
19:00 - 19:30 25.6 26.0 25.0 60 0.0 7.9 63 21.6 13
19:30 - 20:00 24.6 25.0 24.1 64 0.0 13.0 68 22.3 0
20:00 - 20:30 23.8 24.2 23.5 67 0.0 11.9 69 24.1 0
20:30 - 21:00 23.2 23.5 22.9 68 0.0 11.2 64 24.5 0
21:00 - 21:30 22.8 23.0 22.7 70 0.0 10.4 65 23.0 0
21:30 - 22:00 22.6 22.8 22.4 70 0.0 9.7 66 22.0 0
22:00 - 22:30 22.3 22.5 22.2 71 0.0 9.0 68 19.1 0
22:30 - 23:00 22.1 22.2 21.9 73 0.0 8.6 68 19.8 0

Les dades en taronja només han passat un control de qualitat automàtic. Resta pendent la seva validació definitiva.